Time;durP1;ratioP1;P1;durP2;ratioP2;P2;SDS_P1;SDS_P2;PMS_P1;PMS_P2;Temp;Humidity;BMP_temperature;BMP_pressure;BME280_temperature;BME280_humidity;BME280_pressure;Samples;Min_cycle;Max_cycle;Signal;HPM_P1;HPM_P2
2022/01/31 00:01:07;;;;;;;18.00;4.90;;;;;;;4.15;71.90;101445.72;10524546;28;20145;-86
2022/01/31 00:06:09;;;;;;;13.57;4.65;;;;;;;4.07;72.67;101413.00;10499413;28;20052;-83
2022/01/31 00:11:11;;;;;;;13.75;4.00;;;;;;;4.03;72.72;101410.16;10507609;28;20113;-83
2022/01/31 00:16:21;;;;;;;12.85;4.15;;;;;;;4.01;72.44;101376.94;10481523;28;20132;-84
2022/01/31 00:21:22;;;;;;;20.63;4.78;;;;;;;4.12;72.29;101363.19;10471170;28;20128;-83
2022/01/31 00:26:24;;;;;;;19.05;4.93;;;;;;;4.25;71.85;101346.03;10503285;28;20041;-83
2022/01/31 00:31:26;;;;;;;13.88;3.90;;;;;;;4.20;72.12;101317.72;10495427;28;20032;-82
2022/01/31 00:36:28;;;;;;;18.83;4.03;;;;;;;4.17;72.77;101303.91;10506669;28;20045;-82
2022/01/31 00:41:29;;;;;;;11.73;4.70;;;;;;;4.15;73.24;101280.88;10515579;28;20846;-84
2022/01/31 00:46:40;;;;;;;11.70;4.57;;;;;;;4.18;72.61;101252.97;10491358;28;20127;-83
2022/01/31 00:51:42;;;;;;;16.00;4.70;;;;;;;4.19;72.87;101233.47;10486878;28;20052;-84
2022/01/31 00:56:43;;;;;;;12.15;4.50;;;;;;;4.19;73.06;101195.22;10512629;28;20036;-84
2022/01/31 01:01:46;;;;;;;19.85;4.43;;;;;;;4.16;73.27;101182.28;10518553;28;20131;-85
2022/01/31 01:06:48;;;;;;;9.00;4.38;;;;;;;4.12;73.63;101166.81;10502895;28;20063;-83
2022/01/31 01:11:49;;;;;;;14.43;4.15;;;;;;;4.07;74.47;101136.75;10493314;28;20151;-84
2022/01/31 01:16:51;;;;;;;14.80;4.30;;;;;;;4.03;74.85;101115.31;10490759;28;20131;-85
2022/01/31 01:21:53;;;;;;;16.98;4.55;;;;;;;3.93;76.81;101098.63;10492473;28;20090;-84
2022/01/31 01:26:55;;;;;;;15.60;4.60;;;;;;;3.86;77.94;101075.22;10496957;28;20477;-84
2022/01/31 01:31:58;;;;;;;14.95;4.75;;;;;;;3.72;80.31;101046.44;10510619;28;20055;-82
2022/01/31 01:37:08;;;;;;;19.38;4.50;;;;;;;3.53;80.78;101030.13;10521098;28;20037;-87
2022/01/31 01:42:10;;;;;;;19.58;4.35;;;;;;;3.45;81.89;101016.97;10469584;28;20597;-83
2022/01/31 01:47:15;;;;;;;20.05;4.80;;;;;;;3.45;92.32;101000.78;10518154;28;20086;-82
2022/01/31 01:52:18;;;;;;;16.80;4.40;;;;;;;3.37;85.26;100969.78;10466642;28;20059;-81
2022/01/31 01:57:23;;;;;;;21.15;5.25;;;;;;;3.24;85.06;100945.31;10507021;28;20523;-81
2022/01/31 02:02:26;;;;;;;20.55;5.30;;;;;;;3.29;84.93;100946.44;10513485;28;20048;-82
2022/01/31 02:07:37;;;;;;;17.70;5.82;;;;;;;3.27;86.16;100920.03;10497439;28;20143;-81
2022/01/31 02:12:46;;;;;;;10.02;4.43;;;;;;;3.30;86.50;100924.41;10514270;28;20041;-82
2022/01/31 02:18:06;;;;;;;12.95;4.50;;;;;;;3.76;86.39;100900.56;10472233;28;20048;-80
2022/01/31 02:23:14;;;;;;;14.05;4.75;;;;;;;3.07;87.04;100885.81;10545330;28;20040;-82
2022/01/31 02:28:23;;;;;;;13.00;4.63;;;;;;;3.11;86.65;100874.13;10462830;28;20515;-82
2022/01/31 02:33:25;;;;;;;15.45;4.80;;;;;;;3.28;86.76;100847.03;10513281;28;20078;-80
2022/01/31 02:38:28;;;;;;;11.43;3.95;;;;;;;3.26;86.68;100828.25;10511142;28;20052;-81
2022/01/31 02:43:34;;;;;;;10.40;4.25;;;;;;;3.28;86.63;100819.03;10468685;28;20041;-80
2022/01/31 02:48:40;;;;;;;9.93;4.80;;;;;;;3.35;86.96;100794.78;10471128;28;20059;-81
2022/01/31 02:53:43;;;;;;;10.20;4.18;;;;;;;3.37;87.01;100766.06;10494643;28;20049;-81
2022/01/31 02:58:45;;;;;;;12.82;4.35;;;;;;;3.45;87.24;100772.44;10478737;28;20044;-81
2022/01/31 03:03:47;;;;;;;13.57;4.72;;;;;;;3.54;87.70;100735.50;10496523;28;20086;-81
2022/01/31 03:08:48;;;;;;;17.42;4.88;;;;;;;3.57;87.30;100716.16;10491045;28;20408;-81
2022/01/31 03:13:57;;;;;;;11.02;4.88;;;;;;;3.81;87.80;100693.59;10520963;28;20095;-81
2022/01/31 03:18:59;;;;;;;11.15;5.07;;;;;;;3.94;88.24;100691.63;10498923;28;20079;-82
2022/01/31 03:24:01;;;;;;;9.98;5.60;;;;;;;4.16;87.49;100679.94;10497667;28;20568;-80
2022/01/31 03:29:04;;;;;;;14.60;5.22;;;;;;;4.15;87.94;100675.63;10501040;28;20522;-81
2022/01/31 03:34:07;;;;;;;14.73;4.90;;;;;;;4.30;87.67;100658.50;10513880;28;20036;-81
2022/01/31 03:39:10;;;;;;;9.80;4.93;;;;;;;4.37;88.54;100647.78;10508143;28;20047;-81
2022/01/31 03:44:12;;;;;;;11.32;5.38;;;;;;;4.54;87.73;100645.16;10484865;28;20053;-82
2022/01/31 03:49:14;;;;;;;9.07;5.05;;;;;;;4.79;88.05;100625.88;10495157;28;20634;-81
2022/01/31 03:54:22;;;;;;;10.95;5.07;;;;;;;4.91;87.44;100616.19;10506514;28;20044;-80
2022/01/31 03:59:24;;;;;;;11.05;5.50;;;;;;;5.00;87.92;100610.63;10485843;28;20117;-81
2022/01/31 04:04:26;;;;;;;13.75;4.90;;;;;;;5.07;87.15;100600.75;10495353;28;20097;-81
2022/01/31 04:09:28;;;;;;;12.85;4.95;;;;;;;5.18;87.12;100597.75;10482718;28;20069;-81
2022/01/31 04:14:29;;;;;;;10.35;4.70;;;;;;;5.36;87.09;100590.91;10531535;28;22138;-81
2022/01/31 04:19:31;;;;;;;15.82;3.90;;;;;;;5.45;86.30;100599.75;10486248;28;20106;-80
2022/01/31 04:24:34;;;;;;;16.95;4.10;;;;;;;5.46;86.75;100592.16;10520566;28;20070;-81
2022/01/31 04:29:39;;;;;;;14.75;3.88;;;;;;;5.50;86.33;100588.94;10467700;28;20135;-81
2022/01/31 04:34:41;;;;;;;13.38;3.72;;;;;;;5.52;85.66;100586.44;10532472;28;20153;-81
2022/01/31 04:39:43;;;;;;;13.00;3.10;;;;;;;5.52;85.60;100581.31;10513156;28;20567;-80
2022/01/31 04:44:46;;;;;;;13.23;2.78;;;;;;;5.45;84.55;100564.00;10480236;28;20045;-81
2022/01/31 04:49:51;;;;;;;7.82;2.17;;;;;;;5.61;84.75;100561.25;10495966;28;20091;-81
2022/01/31 04:54:53;;;;;;;16.23;2.70;;;;;;;5.55;84.52;100555.88;10489272;28;20553;-81
2022/01/31 04:59:54;;;;;;;12.52;2.45;;;;;;;5.63;84.07;100548.53;10517855;28;20052;-81
2022/01/31 05:05:00;;;;;;;17.95;2.80;;;;;;;5.65;83.97;100552.03;10504586;28;20127;-81
2022/01/31 05:10:02;;;;;;;18.60;3.25;;;;;;;5.65;83.57;100537.56;10487488;28;20059;-81
2022/01/31 05:15:04;;;;;;;21.17;2.65;;;;;;;5.65;83.33;100546.91;10518156;28;20488;-81
2022/01/31 05:20:06;;;;;;;12.18;2.53;;;;;;;5.63;82.07;100534.06;10513510;28;20079;-81
2022/01/31 05:25:11;;;;;;;18.13;2.63;;;;;;;5.51;82.13;100531.88;10492857;28;20048;-81
2022/01/31 05:30:12;;;;;;;12.07;2.75;;;;;;;5.51;82.19;100533.56;10517807;28;20049;-82
2022/01/31 05:35:14;;;;;;;12.55;2.50;;;;;;;5.52;82.35;100514.88;10483440;28;20131;-80
2022/01/31 05:40:16;;;;;;;17.15;2.60;;;;;;;5.44;82.56;100517.09;10520191;28;20048;-81
2022/01/31 05:45:17;;;;;;;15.05;2.90;;;;;;;5.37;83.19;100505.78;10525847;28;20101;-81
2022/01/31 05:50:19;;;;;;;15.02;2.35;;;;;;;5.37;83.61;100495.56;10543631;28;20127;-81
2022/01/31 05:55:21;;;;;;;19.67;2.70;;;;;;;5.37;83.76;100482.78;10542042;28;20055;-80
2022/01/31 06:00:22;;;;;;;18.50;2.75;;;;;;;5.40;84.45;100490.56;10488014;28;20732;-81
2022/01/31 06:05:25;;;;;;;13.82;2.13;;;;;;;5.02;84.74;100499.22;10496046;28;20041;-80
2022/01/31 06:10:27;;;;;;;9.57;1.58;;;;;;;4.90;83.67;100492.81;10516666;28;20036;-83
2022/01/31 06:15:29;;;;;;;9.82;1.45;;;;;;;4.89;84.51;100497.81;10524690;28;20049;-85
2022/01/31 06:20:30;;;;;;;12.10;1.45;;;;;;;4.87;84.94;100486.69;10469025;28;20084;-83
2022/01/31 06:25:32;;;;;;;8.13;1.40;;;;;;;4.88;85.29;100478.22;10508462;28;20098;-83
2022/01/31 06:30:36;;;;;;;4.03;1.25;;;;;;;4.70;84.57;100489.41;10484265;28;20137;-83
2022/01/31 06:35:38;;;;;;;8.52;1.50;;;;;;;4.78;84.41;100481.19;10510832;28;20040;-84
2022/01/31 06:40:42;;;;;;;6.53;1.40;;;;;;;4.59;84.68;100480.38;10498840;28;20044;-84
2022/01/31 06:45:44;;;;;;;10.27;2.03;;;;;;;4.53;85.10;100469.94;10493987;28;20040;-86
2022/01/31 06:50:45;;;;;;;6.15;1.35;;;;;;;4.54;85.29;100471.69;10522532;28;20132;-85
2022/01/31 06:55:47;;;;;;;6.55;1.42;;;;;;;4.55;85.72;100473.44;10496568;28;20044;-86
2022/01/31 07:00:49;;;;;;;10.73;1.42;;;;;;;4.62;85.69;100459.25;10504927;28;20061;-85
2022/01/31 07:05:56;;;;;;;8.10;1.30;;;;;;;4.69;85.66;100458.72;10502012;28;20039;-84
2022/01/31 07:11:52;;;;;;;13.85;1.83;;;;;;;4.71;84.71;100447.75;10452741;28;20048;-85
2022/01/31 07:16:56;;;;;;;11.90;1.58;;;;;;;4.66;85.62;100441.56;10489905;28;20118;-83
2022/01/31 07:22:09;;;;;;;12.02;1.92;;;;;;;4.73;86.27;100428.25;10537972;28;20044;-84
2022/01/31 07:27:11;;;;;;;9.65;1.45;;;;;;;4.82;85.36;100427.78;10456525;28;20037;-83
2022/01/31 07:32:13;;;;;;;15.10;1.75;;;;;;;4.87;85.03;100425.44;10461950;28;20051;-83
2022/01/31 07:37:15;;;;;;;9.35;1.95;;;;;;;4.90;85.45;100423.88;10483897;28;20094;-82
2022/01/31 07:42:17;;;;;;;19.33;2.13;;;;;;;4.89;85.01;100413.59;10475589;28;20048;-83
2022/01/31 07:47:22;;;;;;;7.32;1.98;;;;;;;4.96;84.93;100414.72;10499775;28;20044;-85
2022/01/31 07:52:24;;;;;;;9.88;2.03;;;;;;;4.90;85.25;100416.22;10468367;28;20041;-84
2022/01/31 07:57:26;;;;;;;10.40;1.77;;;;;;;4.95;84.87;100408.75;10493871;28;20087;-83
2022/01/31 08:02:33;;;;;;;9.65;1.90;;;;;;;4.89;85.85;100423.78;10488129;28;20048;-86
2022/01/31 08:07:36;;;;;;;10.18;1.75;;;;;;;4.88;85.65;100411.84;10513389;28;20044;-84
2022/01/31 08:12:37;;;;;;;11.32;1.80;;;;;;;4.81;85.82;100400.53;10507336;28;20411;-83
2022/01/31 08:17:39;;;;;;;10.75;1.65;;;;;;;4.93;85.27;100397.59;10515367;28;20040;-84
2022/01/31 08:22:41;;;;;;;7.35;1.25;;;;;;;4.90;85.31;100394.91;10510267;28;20048;-85
2022/01/31 08:27:49;;;;;;;7.60;0.80;;;;;;;5.00;85.44;100397.03;10474763;28;20044;-86
2022/01/31 08:33:02;;;;;;;10.05;2.10;;;;;;;5.04;85.27;100408.25;10499258;28;20052;-85
2022/01/31 08:38:04;;;;;;;12.57;1.70;;;;;;;4.96;86.06;100400.25;10510420;28;20045;-83
2022/01/31 08:43:07;;;;;;;9.27;1.77;;;;;;;5.04;85.20;100409.09;10521475;28;20044;-86
2022/01/31 08:48:08;;;;;;;12.55;1.88;;;;;;;5.16;85.00;100405.31;10524086;28;20056;-84
2022/01/31 08:53:10;;;;;;;19.63;1.52;;;;;;;5.15;84.55;100401.88;10499958;28;20052;-86
2022/01/31 08:58:12;;;;;;;12.80;1.80;;;;;;;4.99;85.57;100399.53;10481144;28;20048;-84
2022/01/31 09:08:15;;;;;;;11.88;1.63;;;;;;;5.06;84.26;100398.97;10514069;28;20044;-88
2022/01/31 09:13:18;;;;;;;11.60;1.70;;;;;;;5.06;84.89;100407.50;10511257;28;20040;-87
2022/01/31 09:18:19;;;;;;;15.60;1.98;;;;;;;5.14;85.96;100409.47;10490811;28;20047;-85
2022/01/31 09:23:21;;;;;;;12.65;2.03;;;;;;;5.15;86.39;100406.13;10501729;28;20052;-85
2022/01/31 09:28:24;;;;;;;12.82;2.10;;;;;;;5.18;86.02;100406.22;10502782;28;20125;-86
2022/01/31 09:33:26;;;;;;;7.03;1.00;;;;;;;5.17;85.19;100430.03;10520220;28;20044;-91
2022/01/31 09:38:28;;;;;;;12.32;1.75;;;;;;;5.19;86.45;100434.41;10492731;28;20036;-88
2022/01/31 09:43:56;;;;;;;11.35;1.45;;;;;;;5.21;86.20;100434.44;10532858;28;20355;-86
2022/01/31 09:48:54;;;;;;;14.85;2.17;;;;;;;5.20;86.38;100459.13;10509218;28;20067;-88
2022/01/31 09:54:00;;;;;;;12.57;1.48;;;;;;;5.42;87.00;100461.66;10478716;28;20380;-86
2022/01/31 09:59:02;;;;;;;12.55;1.80;;;;;;;5.38;86.31;100469.22;10502088;28;20056;-86
2022/01/31 10:04:14;;;;;;;9.75;1.58;;;;;;;5.33;85.59;100493.69;10482498;28;20437;-90
2022/01/31 10:09:27;;;;;;;8.38;1.17;;;;;;;5.34;85.46;100505.66;10478554;28;20048;-88
2022/01/31 10:19:57;;;;;;;8.55;1.13;;;;;;;5.38;86.35;100522.88;10505158;28;20048;-86
2022/01/31 10:25:02;;;;;;;10.27;1.25;;;;;;;5.29;86.36;100553.13;10477897;28;20052;-86
2022/01/31 10:30:13;;;;;;;13.23;1.65;;;;;;;5.44;86.54;100562.25;10500931;28;20411;-85
2022/01/31 10:35:18;;;;;;;5.78;1.15;;;;;;;5.38;85.66;100558.63;10490267;28;20040;-88
2022/01/31 10:56:48;;;;;;;12.55;1.80;;;;;;;5.47;85.98;100577.72;10476211;28;20048;-87
2022/01/31 11:01:52;;;;;;;12.82;1.80;;;;;;;5.55;86.54;100581.44;10497850;28;20060;-87
2022/01/31 11:07:13;;;;;;;20.45;2.80;;;;;;;5.37;85.51;100592.66;10505333;28;20479;-87
2022/01/31 11:12:22;;;;;;;20.83;1.75;;;;;;;5.55;85.92;100599.31;10500140;28;20041;-85
2022/01/31 11:17:25;;;;;;;18.98;2.10;;;;;;;5.60;87.10;100614.84;10494172;28;20048;-85
2022/01/31 11:22:32;;;;;;;17.48;2.95;;;;;;;5.57;85.91;100600.25;10500314;28;20589;-87
2022/01/31 11:27:46;;;;;;;14.70;2.33;;;;;;;5.71;85.70;100618.72;10486031;28;20401;-88
2022/01/31 11:32:49;;;;;;;14.85;1.98;;;;;;;5.75;85.46;100620.59;10491581;28;20052;-87
2022/01/31 11:37:52;;;;;;;16.48;2.33;;;;;;;5.84;85.55;100632.91;10491573;28;20101;-87
2022/01/31 11:42:54;;;;;;;24.30;2.63;;;;;;;5.82;86.44;100647.28;10488556;28;20047;-86
2022/01/31 11:47:58;;;;;;;13.13;1.45;;;;;;;5.73;86.96;100668.25;10482937;28;20446;-84
2022/01/31 11:53:01;;;;;;;11.48;1.90;;;;;;;5.87;86.39;100662.00;10474595;28;20056;-85
2022/01/31 11:58:17;;;;;;;5.80;1.15;;;;;;;5.72;86.77;100661.38;10476244;28;20044;-86
2022/01/31 12:03:19;;;;;;;7.72;1.00;;;;;;;5.84;87.68;100681.47;10500630;28;20127;-86
2022/01/31 12:08:37;;;;;;;4.90;1.10;;;;;;;5.99;87.23;100666.78;10480405;28;20052;-85
2022/01/31 12:13:47;;;;;;;7.05;1.50;;;;;;;5.95;86.55;100680.22;10500884;28;20040;-85
2022/01/31 12:19:29;;;;;;;9.57;1.45;;;;;;;5.92;87.52;100685.19;10496944;28;20463;-86
2022/01/31 12:24:49;;;;;;;10.82;1.92;;;;;;;6.10;87.16;100679.13;10519018;28;20055;-85
2022/01/31 12:29:56;;;;;;;5.88;1.10;;;;;;;6.07;87.18;100691.81;10401322;28;20044;-85
2022/01/31 12:35:00;;;;;;;8.60;1.38;;;;;;;6.09;87.33;100705.50;10506087;28;20044;-86
2022/01/31 12:40:23;;;;;;;5.88;1.23;;;;;;;6.07;87.22;100704.59;10512487;28;20049;-86
2022/01/31 12:45:37;;;;;;;11.88;1.55;;;;;;;6.06;87.67;100713.06;10485622;28;20401;-85
2022/01/31 12:50:42;;;;;;;17.92;1.40;;;;;;;6.08;87.33;100716.53;10521169;28;20056;-84
2022/01/31 12:56:00;;;;;;;9.20;1.42;;;;;;;6.20;87.23;100722.19;10488026;28;20041;-86
2022/01/31 13:01:10;;;;;;;14.80;1.67;;;;;;;6.13;87.62;100725.31;10483866;28;20040;-86
2022/01/31 13:06:42;;;;;;;9.82;1.75;;;;;;;6.15;87.20;100728.78;10503126;28;20097;-86
2022/01/31 13:11:47;;;;;;;18.90;1.83;;;;;;;6.14;87.10;100725.34;10511538;28;20449;-86
2022/01/31 13:16:58;;;;;;;18.00;2.28;;;;;;;6.05;87.31;100742.00;10527071;28;20049;-86
2022/01/31 13:22:07;;;;;;;22.67;2.38;;;;;;;6.12;87.91;100742.31;10496221;28;20056;-86
2022/01/31 13:27:14;;;;;;;20.60;2.58;;;;;;;6.15;87.34;100754.34;10509908;28;20052;-87
2022/01/31 13:32:38;;;;;;;26.77;2.80;;;;;;;6.17;86.69;100765.53;10502789;28;20109;-88
2022/01/31 13:37:46;;;;;;;27.13;3.88;;;;;;;6.40;86.59;100761.38;10494390;28;20049;-88
2022/01/31 13:43:12;;;;;;;36.95;3.95;;;;;;;6.50;85.76;100780.53;10495631;28;20052;-87
2022/01/31 13:48:28;;;;;;;38.50;3.28;;;;;;;6.52;85.68;100791.69;10500944;28;20044;-87
2022/01/31 13:53:41;;;;;;;24.00;3.85;;;;;;;6.47;84.88;100800.88;10498718;28;20044;-86
2022/01/31 13:58:56;;;;;;;26.27;2.85;;;;;;;6.48;84.96;100826.53;10500713;28;20079;-87
2022/01/31 14:03:58;;;;;;;27.48;3.13;;;;;;;6.46;84.68;100837.50;10490557;28;20049;-86
2022/01/31 14:09:06;;;;;;;30.50;2.95;;;;;;;6.31;85.10;100850.56;10518238;28;20055;-87
2022/01/31 14:14:12;;;;;;;30.35;3.75;;;;;;;6.41;85.26;100862.03;10517288;28;20047;-87
2022/01/31 14:19:15;;;;;;;28.88;3.25;;;;;;;6.45;84.87;100866.47;10515276;28;20041;-87
2022/01/31 14:24:19;;;;;;;30.63;3.20;;;;;;;6.49;83.78;100873.47;10519412;28;20047;-87
2022/01/31 14:29:37;;;;;;;27.70;2.90;;;;;;;6.53;84.65;100880.47;10480661;28;20136;-92
2022/01/31 14:34:40;;;;;;;25.15;3.30;;;;;;;6.50;84.77;100896.56;10501883;28;20125;-87
2022/01/31 14:50:39;;;;;;;23.20;3.88;;;;;;;6.53;83.39;100916.31;10496238;28;20064;-88
2022/01/31 14:55:49;;;;;;;35.33;4.35;;;;;;;6.55;84.14;100918.94;10483937;28;20055;-88
2022/01/31 15:00:51;;;;;;;28.65;3.83;;;;;;;6.58;83.10;100936.97;10477391;28;20039;-88
2022/01/31 15:05:54;;;;;;;30.55;4.53;;;;;;;6.63;83.48;100938.03;10490289;28;20574;-86
2022/01/31 15:10:58;;;;;;;19.38;3.25;;;;;;;6.60;83.60;100941.34;10485756;28;20044;-90
2022/01/31 15:16:05;;;;;;;22.17;3.25;;;;;;;6.65;83.79;100952.69;10506217;28;20068;-88
2022/01/31 15:21:10;;;;;;;17.02;2.85;;;;;;;6.43;84.42;100962.81;10508464;28;20053;-90
2022/01/31 15:26:16;;;;;;;22.67;2.95;;;;;;;6.53;84.71;100984.56;10467815;28;20496;-89
2022/01/31 15:31:20;;;;;;;22.85;2.75;;;;;;;6.47;85.15;101003.97;10481997;28;20048;-86
2022/01/31 15:36:42;;;;;;;14.35;2.67;;;;;;;6.39;85.16;101019.75;10495093;28;20483;-87
2022/01/31 15:41:47;;;;;;;13.48;2.05;;;;;;;6.50;84.58;101028.81;10499426;28;20053;-88
2022/01/31 15:46:49;;;;;;;14.77;2.58;;;;;;;6.51;84.95;101035.69;10489789;28;20051;-89
2022/01/31 15:51:51;;;;;;;19.63;2.70;;;;;;;6.52;83.96;101057.88;10483609;28;20048;-90
2022/01/31 15:56:56;;;;;;;28.58;3.33;;;;;;;6.54;83.91;101066.53;10488679;28;20476;-90
2022/01/31 16:01:58;;;;;;;29.77;3.15;;;;;;;6.49;83.08;101085.91;10473857;28;20759;-89
2022/01/31 16:06:59;;;;;;;15.93;2.42;;;;;;;6.54;81.70;101087.00;10485487;28;20040;-89
2022/01/31 16:12:04;;;;;;;9.30;2.22;;;;;;;6.70;80.86;101100.50;10462872;28;20059;-90
2022/01/31 16:17:27;;;;;;;12.27;2.25;;;;;;;6.59;81.72;101121.34;10487096;28;20048;-90
2022/01/31 16:22:29;;;;;;;19.77;2.65;;;;;;;6.66;80.15;101137.88;10470620;28;20110;-88
2022/01/31 16:27:33;;;;;;;11.20;1.80;;;;;;;6.71;79.36;101153.47;10485148;28;20114;-89
2022/01/31 16:32:39;;;;;;;6.43;1.35;;;;;;;6.66;80.11;101174.59;10470860;28;20148;-88
2022/01/31 16:37:42;;;;;;;15.07;1.67;;;;;;;6.54;78.55;101178.28;10483598;28;20067;-88
2022/01/31 16:42:46;;;;;;;9.02;1.25;;;;;;;6.54;77.23;101217.56;10506102;28;20132;-89
2022/01/31 16:47:48;;;;;;;6.13;0.90;;;;;;;6.38;76.76;101227.84;10489315;28;20040;-88
2022/01/31 16:52:50;;;;;;;4.28;0.80;;;;;;;6.31;77.64;101242.91;10502336;28;20036;-89
2022/01/31 16:57:56;;;;;;;5.68;1.00;;;;;;;6.28;77.31;101258.13;10477072;28;20052;-87
2022/01/31 17:02:59;;;;;;;8.18;1.00;;;;;;;6.13;80.66;101282.97;10497659;28;20055;-88
2022/01/31 17:08:02;;;;;;;8.10;1.05;;;;;;;5.99;79.89;101278.03;10492448;28;20072;-89
2022/01/31 17:13:04;;;;;;;9.93;1.13;;;;;;;6.10;79.09;101298.16;10493068;28;20436;-87
2022/01/31 17:18:06;;;;;;;9.65;1.00;;;;;;;5.97;80.39;101323.06;10471964;28;20045;-86
2022/01/31 17:23:08;;;;;;;7.60;1.00;;;;;;;5.99;78.70;101331.75;10474832;28;20051;-86
2022/01/31 17:28:11;;;;;;;7.13;1.10;;;;;;;5.91;78.98;101335.56;10498073;28;20052;-87
2022/01/31 17:33:12;;;;;;;8.10;1.65;;;;;;;5.79;78.74;101357.91;10491131;28;20049;-89
2022/01/31 17:38:14;;;;;;;5.78;1.10;;;;;;;5.72;78.86;101360.16;10491750;28;20048;-87
2022/01/31 17:43:15;;;;;;;8.25;1.58;;;;;;;5.76;78.24;101373.09;10493442;28;20068;-87
2022/01/31 17:48:17;;;;;;;10.18;1.63;;;;;;;5.71;77.89;101396.72;10514953;28;20074;-85
2022/01/31 17:53:23;;;;;;;5.63;1.00;;;;;;;5.79;77.71;101414.16;10498454;28;20053;-88
2022/01/31 17:58:26;;;;;;;8.98;1.10;;;;;;;5.66;78.32;101410.09;10518233;28;20052;-86
2022/01/31 18:03:28;;;;;;;8.98;1.27;;;;;;;5.51;78.38;101434.00;10499710;28;20549;-87
2022/01/31 18:08:30;;;;;;;11.02;1.33;;;;;;;5.56;78.60;101458.16;10475366;28;20483;-87
2022/01/31 18:13:32;;;;;;;9.77;1.33;;;;;;;5.45;78.95;101471.13;10516497;28;20075;-86
2022/01/31 18:18:34;;;;;;;10.23;1.27;;;;;;;5.38;80.43;101493.78;10469842;28;20045;-89
2022/01/31 18:23:35;;;;;;;6.20;1.23;;;;;;;5.27;80.39;101510.16;10465888;28;20117;-88
2022/01/31 18:28:37;;;;;;;5.20;1.13;;;;;;;5.48;79.90;101514.72;10490505;28;20036;-89
2022/01/31 18:33:40;;;;;;;5.18;1.00;;;;;;;5.30;80.26;101533.34;10481667;28;20048;-90
2022/01/31 18:38:48;;;;;;;5.03;0.77;;;;;;;5.27;78.93;101575.72;10528872;28;20044;-88
2022/01/31 18:43:53;;;;;;;11.65;1.30;;;;;;;5.13;81.27;101577.44;10519547;28;20051;-91
2022/01/31 18:49:24;;;;;;;7.70;0.90;;;;;;;4.93;82.85;101584.81;10521077;28;20044;-87
2022/01/31 18:54:31;;;;;;;5.35;0.82;;;;;;;4.87;83.13;101594.69;10521159;28;20044;-87
2022/01/31 18:59:41;;;;;;;7.45;1.08;;;;;;;4.79;83.50;101601.00;10515117;28;20044;-89
2022/01/31 19:04:45;;;;;;;4.68;1.35;;;;;;;4.73;84.00;101617.69;10489967;28;20052;-88
2022/01/31 19:09:46;;;;;;;12.65;1.60;;;;;;;4.91;83.41;101640.03;10475449;28;20048;-89
2022/01/31 19:19:50;;;;;;;18.52;1.83;;;;;;;4.90;82.56;101661.22;10493304;28;20036;-88
2022/01/31 19:24:53;;;;;;;12.05;1.80;;;;;;;4.97;81.33;101677.81;10478313;28;20040;-85
2022/01/31 19:29:54;;;;;;;16.45;2.10;;;;;;;5.02;82.19;101681.53;10487953;28;20040;-87
2022/01/31 19:34:56;;;;;;;16.67;1.98;;;;;;;4.98;82.67;101693.22;10467571;28;20537;-88
2022/01/31 19:44:59;;;;;;;18.88;2.40;;;;;;;5.02;80.09;101697.75;10486682;28;20074;-88
2022/01/31 19:50:04;;;;;;;16.73;2.33;;;;;;;5.14;79.31;101717.16;10499899;28;20044;-88
2022/01/31 19:55:06;;;;;;;23.27;2.90;;;;;;;5.25;78.99;101731.44;10471235;28;20052;-87
2022/01/31 20:00:08;;;;;;;17.55;2.95;;;;;;;5.16;78.33;101747.13;10487164;28;20044;-86
2022/01/31 20:05:10;;;;;;;27.42;3.28;;;;;;;5.11;78.19;101757.81;10481259;28;20046;-89
2022/01/31 20:10:13;;;;;;;23.08;3.25;;;;;;;5.11;77.12;101783.38;10511293;28;20131;-90
2022/01/31 20:15:16;;;;;;;23.80;2.90;;;;;;;5.11;76.67;101781.72;10506484;28;20048;-86
2022/01/31 20:20:18;;;;;;;30.42;3.92;;;;;;;5.06;75.69;101768.66;10488689;28;20601;-88
2022/01/31 20:25:20;;;;;;;30.25;3.53;;;;;;;5.13;74.14;101786.91;10485378;28;20491;-86
2022/01/31 20:30:22;;;;;;;33.63;3.70;;;;;;;5.11;74.35;101801.25;10480516;28;20033;-87
2022/01/31 20:35:24;;;;;;;26.08;3.03;;;;;;;5.08;74.59;101790.09;10473593;28;20040;-88
2022/01/31 20:40:43;;;;;;;26.88;3.65;;;;;;;5.12;72.73;101810.69;10499104;28;20115;-88
2022/01/31 20:45:45;;;;;;;26.85;4.13;;;;;;;5.03;73.52;101816.97;10489387;28;20054;-89
2022/01/31 20:50:48;;;;;;;32.53;3.10;;;;;;;5.14;73.51;101819.34;10528546;28;20036;-86
2022/01/31 20:55:50;;;;;;;33.22;3.40;;;;;;;5.06;72.85;101837.63;10505876;28;20063;-86
2022/01/31 21:00:55;;;;;;;21.95;3.20;;;;;;;5.18;71.84;101824.75;10497349;28;20087;-87
2022/01/31 21:06:00;;;;;;;19.33;3.13;;;;;;;5.16;72.72;101818.66;10470789;28;20404;-88
2022/01/31 21:11:07;;;;;;;23.08;3.55;;;;;;;5.05;72.53;101823.06;10486146;28;20036;-88
2022/01/31 21:16:11;;;;;;;34.15;3.28;;;;;;;5.15;71.85;101847.53;10499224;28;20041;-88
2022/01/31 21:21:13;;;;;;;29.02;3.95;;;;;;;5.08;70.66;101843.72;10473255;28;20480;-87
2022/01/31 21:26:14;;;;;;;20.95;3.33;;;;;;;4.87;70.49;101850.00;10481084;28;20143;-86
2022/01/31 21:31:16;;;;;;;25.95;3.63;;;;;;;4.74;70.24;101863.66;10498640;28;20053;-87
2022/01/31 21:36:19;;;;;;;25.58;3.20;;;;;;;4.67;69.21;101881.91;10504363;28;20040;-87
2022/01/31 21:41:21;;;;;;;17.60;2.00;;;;;;;4.60;67.44;101889.16;10510741;28;20055;-85
2022/01/31 21:46:23;;;;;;;20.80;2.70;;;;;;;4.39;66.60;101875.84;10496270;28;20545;-86
2022/01/31 21:51:25;;;;;;;25.73;3.35;;;;;;;4.33;66.42;101887.31;10492360;28;20121;-88
2022/01/31 21:56:26;;;;;;;18.50;2.53;;;;;;;4.24;65.47;101911.44;10476974;28;20775;-87
2022/01/31 22:01:28;;;;;;;26.67;3.05;;;;;;;4.09;65.77;101906.16;10490291;28;20072;-88
2022/01/31 22:06:33;;;;;;;30.15;3.20;;;;;;;3.95;66.20;101911.97;10482922;28;20135;-87
2022/01/31 22:11:41;;;;;;;23.55;2.55;;;;;;;3.83;66.50;101921.34;10490679;28;20548;-88
2022/01/31 22:16:44;;;;;;;26.92;3.10;;;;;;;3.77;66.56;101922.66;10499435;28;20044;-88
2022/01/31 22:21:46;;;;;;;15.60;2.13;;;;;;;3.80;66.45;101922.88;10499883;28;20496;-87
2022/01/31 22:26:48;;;;;;;21.05;2.17;;;;;;;3.63;66.27;101921.72;10470144;28;20040;-87
2022/01/31 22:31:54;;;;;;;29.63;3.88;;;;;;;3.65;66.46;101912.50;10467087;28;20040;-87
2022/01/31 22:36:57;;;;;;;11.35;2.00;;;;;;;3.51;68.33;101903.00;10490204;28;20040;-87
2022/01/31 22:42:01;;;;;;;24.17;2.85;;;;;;;3.45;67.99;101892.38;10467881;28;20055;-87
2022/01/31 22:47:02;;;;;;;24.73;2.38;;;;;;;3.40;68.30;101904.78;10480579;28;20049;-87
2022/01/31 22:52:04;;;;;;;16.67;2.83;;;;;;;3.32;69.38;101891.50;10483840;28;20055;-87
2022/01/31 22:57:09;;;;;;;18.10;2.28;;;;;;;3.12;69.72;101879.88;10467190;28;20136;-86
2022/01/31 23:02:11;;;;;;;13.63;2.00;;;;;;;2.98;71.30;101911.09;10463885;28;20036;-88
2022/01/31 23:07:15;;;;;;;22.98;2.88;;;;;;;2.88;71.87;101916.28;10511410;28;20090;-88
2022/01/31 23:12:17;;;;;;;25.48;2.67;;;;;;;2.78;72.00;101936.00;10482575;28;20041;-88
2022/01/31 23:17:34;;;;;;;17.02;2.17;;;;;;;2.82;72.53;101937.97;10478454;28;20047;-86
2022/01/31 23:42:10;;;;;;;22.95;2.65;;;;;;;2.65;73.82;101939.28;10490453;28;20052;-88
2022/01/31 23:55:43;;;;;;;16.15;2.10;;;;;;;2.76;81.31;101934.97;10489743;28;20511;-87
